sensor_id;sensor_type;location;lat;lon;timestamp;pressure;altitude;pressure_sealevel;temperature;humidity
48527;BME280;34317;51.660;5.824;2022-07-29T00:02:27;101589.06;;;21.66;40.83
48527;BME280;34317;51.660;5.824;2022-07-29T00:04:54;101579.13;;;21.67;40.92
48527;BME280;34317;51.660;5.824;2022-07-29T00:07:22;101573.72;;;21.67;40.91
48527;BME280;34317;51.660;5.824;2022-07-29T00:09:49;101576.53;;;21.65;40.88
48527;BME280;34317;51.660;5.824;2022-07-29T00:12:20;101569.41;;;21.64;40.85
48527;BME280;34317;51.660;5.824;2022-07-29T00:14:54;101573.97;;;21.64;40.70
48527;BME280;34317;51.660;5.824;2022-07-29T00:17:22;101583.06;;;21.63;40.83
48527;BME280;34317;51.660;5.824;2022-07-29T00:19:50;101584.75;;;21.64;40.94
48527;BME280;34317;51.660;5.824;2022-07-29T00:22:17;101576.66;;;21.64;40.77
48527;BME280;34317;51.660;5.824;2022-07-29T00:24:44;101577.41;;;21.66;40.88
48527;BME280;34317;51.660;5.824;2022-07-29T00:27:14;101575.44;;;21.68;40.97
48527;BME280;34317;51.660;5.824;2022-07-29T00:29:41;101571.66;;;21.70;40.99
48527;BME280;34317;51.660;5.824;2022-07-29T00:32:08;101576.91;;;21.72;40.90
48527;BME280;34317;51.660;5.824;2022-07-29T00:34:35;101574.97;;;21.74;40.72
48527;BME280;34317;51.660;5.824;2022-07-29T00:37:21;101570.66;;;21.71;40.52
48527;BME280;34317;51.660;5.824;2022-07-29T00:39:48;101574.97;;;21.74;40.66
48527;BME280;34317;51.660;5.824;2022-07-29T00:42:15;101576.91;;;21.72;40.84
48527;BME280;34317;51.660;5.824;2022-07-29T00:44:43;101571.53;;;21.72;40.73
48527;BME280;34317;51.660;5.824;2022-07-29T00:47:11;101575.19;;;21.71;41.01
48527;BME280;34317;51.660;5.824;2022-07-29T00:49:40;101570.75;;;21.70;41.29
48527;BME280;34317;51.660;5.824;2022-07-29T00:52:09;101570.91;;;21.68;41.54
48527;BME280;34317;51.660;5.824;2022-07-29T00:54:38;101568.34;;;21.67;42.00
48527;BME280;34317;51.660;5.824;2022-07-29T00:57:11;101576.66;;;21.64;42.06
48527;BME280;34317;51.660;5.824;2022-07-29T00:59:38;101572.75;;;21.56;42.07
48527;BME280;34317;51.660;5.824;2022-07-29T01:02:05;101576.94;;;21.49;42.39
48527;BME280;34317;51.660;5.824;2022-07-29T01:04:33;101579.13;;;21.44;42.57
48527;BME280;34317;51.660;5.824;2022-07-29T01:07:01;101591.84;;;21.42;42.96
48527;BME280;34317;51.660;5.824;2022-07-29T01:09:30;101588.41;;;21.40;43.62
48527;BME280;34317;51.660;5.824;2022-07-29T01:12:16;101590.38;;;21.38;43.75
48527;BME280;34317;51.660;5.824;2022-07-29T01:14:45;101595.97;;;21.35;43.90
48527;BME280;34317;51.660;5.824;2022-07-29T01:17:32;101596.22;;;21.32;44.16
48527;BME280;34317;51.660;5.824;2022-07-29T01:20:14;101598.44;;;21.27;44.46
48527;BME280;34317;51.660;5.824;2022-07-29T01:31:44;101632.06;;;20.74;45.99
48527;BME280;34317;51.660;5.824;2022-07-29T01:34:42;101643.31;;;20.68;46.05
48527;BME280;34317;51.660;5.824;2022-07-29T01:40:34;101639.75;;;20.55;46.62
48527;BME280;34317;51.660;5.824;2022-07-29T01:43:46;101627.75;;;20.48;46.95
48527;BME280;34317;51.660;5.824;2022-07-29T01:46:21;101624.53;;;20.42;47.36
48527;BME280;34317;51.660;5.824;2022-07-29T01:48:55;101628.44;;;20.38;47.84
48527;BME280;34317;51.660;5.824;2022-07-29T01:51:30;101625.00;;;20.36;48.19
48527;BME280;34317;51.660;5.824;2022-07-29T01:54:07;101614.47;;;20.33;48.14
48527;BME280;34317;51.660;5.824;2022-07-29T01:56:36;101616.41;;;20.31;48.02
48527;BME280;34317;51.660;5.824;2022-07-29T01:59:05;101610.50;;;20.26;48.49
48527;BME280;34317;51.660;5.824;2022-07-29T02:01:34;101599.00;;;20.24;48.58
48527;BME280;34317;51.660;5.824;2022-07-29T02:04:03;101601.16;;;20.19;48.87
48527;BME280;34317;51.660;5.824;2022-07-29T02:06:33;101588.91;;;20.15;48.99
48527;BME280;34317;51.660;5.824;2022-07-29T02:09:03;101582.25;;;20.08;49.53
48527;BME280;34317;51.660;5.824;2022-07-29T02:11:35;101571.22;;;19.99;49.60
48527;BME280;34317;51.660;5.824;2022-07-29T02:14:03;101547.47;;;19.93;49.96
48527;BME280;34317;51.660;5.824;2022-07-29T02:16:33;101546.19;;;19.86;49.98
48527;BME280;34317;51.660;5.824;2022-07-29T02:19:04;101534.38;;;19.76;50.18
48527;BME280;34317;51.660;5.824;2022-07-29T02:21:33;101538.69;;;19.65;50.38
48527;BME280;34317;51.660;5.824;2022-07-29T02:24:02;101530.56;;;19.54;50.65
48527;BME280;34317;51.660;5.824;2022-07-29T02:26:32;101522.19;;;19.46;51.02
48527;BME280;34317;51.660;5.824;2022-07-29T02:29:01;101524.56;;;19.38;51.26
48527;BME280;34317;51.660;5.824;2022-07-29T02:31:32;101515.44;;;19.28;51.45
48527;BME280;34317;51.660;5.824;2022-07-29T02:34:03;101515.88;;;19.21;51.63
48527;BME280;34317;51.660;5.824;2022-07-29T02:36:33;101518.78;;;19.18;51.73
48527;BME280;34317;51.660;5.824;2022-07-29T02:39:01;101515.34;;;19.16;52.01
48527;BME280;34317;51.660;5.824;2022-07-29T02:41:33;101501.16;;;19.14;52.04
48527;BME280;34317;51.660;5.824;2022-07-29T02:44:11;101499.69;;;19.10;52.12
48527;BME280;34317;51.660;5.824;2022-07-29T02:46:49;101500.84;;;19.06;52.36
48527;BME280;34317;51.660;5.824;2022-07-29T02:52:17;101486.16;;;18.99;52.16
48527;BME280;34317;51.660;5.824;2022-07-29T02:55:10;101486.34;;;18.96;52.07
48527;BME280;34317;51.660;5.824;2022-07-29T02:57:44;101479.47;;;18.92;52.10
48527;BME280;34317;51.660;5.824;2022-07-29T03:00:23;101479.69;;;18.89;52.60
48527;BME280;34317;51.660;5.824;2022-07-29T03:02:55;101478.94;;;18.86;52.61
48527;BME280;34317;51.660;5.824;2022-07-29T03:05:23;101472.81;;;18.84;52.75
48527;BME280;34317;51.660;5.824;2022-07-29T03:08:04;101467.66;;;18.81;52.84
48527;BME280;34317;51.660;5.824;2022-07-29T03:10:32;101492.78;;;18.80;52.90
48527;BME280;34317;51.660;5.824;2022-07-29T03:13:00;101496.41;;;18.79;52.90
48527;BME280;34317;51.660;5.824;2022-07-29T03:15:28;101497.28;;;18.80;53.01
48527;BME280;34317;51.660;5.824;2022-07-29T03:17:56;101494.50;;;18.81;53.03
48527;BME280;34317;51.660;5.824;2022-07-29T03:20:24;101492.56;;;18.83;53.08
48527;BME280;34317;51.660;5.824;2022-07-29T03:22:52;101488.94;;;18.84;53.26
48527;BME280;34317;51.660;5.824;2022-07-29T03:25:19;101494.28;;;18.84;53.22
48527;BME280;34317;51.660;5.824;2022-07-29T03:27:47;101485.28;;;18.85;53.09
48527;BME280;34317;51.660;5.824;2022-07-29T03:30:15;101491.63;;;18.84;53.16
48527;BME280;34317;51.660;5.824;2022-07-29T03:32:49;101490.88;;;18.82;53.14
48527;BME280;34317;51.660;5.824;2022-07-29T03:35:19;101495.47;;;18.80;53.43
48527;BME280;34317;51.660;5.824;2022-07-29T03:37:46;101491.03;;;18.79;53.41
48527;BME280;34317;51.660;5.824;2022-07-29T03:40:18;101485.66;;;18.79;53.61
48527;BME280;34317;51.660;5.824;2022-07-29T03:42:47;101484.75;;;18.80;53.66
48527;BME280;34317;51.660;5.824;2022-07-29T03:45:18;101498.16;;;18.80;53.63
48527;BME280;34317;51.660;5.824;2022-07-29T03:47:48;101501.59;;;18.82;53.74
48527;BME280;34317;51.660;5.824;2022-07-29T03:50:23;101502.44;;;18.83;53.43
48527;BME280;34317;51.660;5.824;2022-07-29T03:52:51;101491.03;;;18.79;53.71
48527;BME280;34317;51.660;5.824;2022-07-29T03:55:18;101506.28;;;18.79;53.68
48527;BME280;34317;51.660;5.824;2022-07-29T03:57:46;101514.34;;;18.79;53.71
48527;BME280;34317;51.660;5.824;2022-07-29T04:00:14;101514.28;;;18.80;53.75
48527;BME280;34317;51.660;5.824;2022-07-29T04:02:43;101514.28;;;18.80;53.71
48527;BME280;34317;51.660;5.824;2022-07-29T04:05:15;101514.28;;;18.80;53.56
48527;BME280;34317;51.660;5.824;2022-07-29T04:07:44;101508.13;;;18.78;53.47
48527;BME280;34317;51.660;5.824;2022-07-29T04:10:11;101514.44;;;18.77;53.68
48527;BME280;34317;51.660;5.824;2022-07-29T04:12:39;101512.72;;;18.76;53.70
48527;BME280;34317;51.660;5.824;2022-07-29T04:15:06;101505.53;;;18.77;53.75
48527;BME280;34317;51.660;5.824;2022-07-29T04:17:33;101505.63;;;18.75;54.03
48527;BME280;34317;51.660;5.824;2022-07-29T04:20:00;101502.94;;;18.75;53.93
48527;BME280;34317;51.660;5.824;2022-07-29T04:22:28;101505.63;;;18.75;54.08
48527;BME280;34317;51.660;5.824;2022-07-29T04:24:55;101509.31;;;18.74;54.00
48527;BME280;34317;51.660;5.824;2022-07-29T04:27:29;101505.84;;;18.72;53.97
48527;BME280;34317;51.660;5.824;2022-07-29T04:29:56;101513.13;;;18.70;54.25
48527;BME280;34317;51.660;5.824;2022-07-29T04:32:24;101513.38;;;18.67;54.36
48527;BME280;34317;51.660;5.824;2022-07-29T04:34:51;101518.72;;;18.67;54.32
48527;BME280;34317;51.660;5.824;2022-07-29T04:37:18;101527.72;;;18.66;54.62
48527;BME280;34317;51.660;5.824;2022-07-29T04:39:45;101523.88;;;18.70;54.57
48527;BME280;34317;51.660;5.824;2022-07-29T04:42:12;101518.31;;;18.73;54.56
48527;BME280;34317;51.660;5.824;2022-07-29T04:44:39;101525.41;;;18.74;54.61
48527;BME280;34317;51.660;5.824;2022-07-29T04:47:09;101530.78;;;18.74;54.53
48527;BME280;34317;51.660;5.824;2022-07-29T04:49:39;101530.97;;;18.71;54.74
48527;BME280;34317;51.660;5.824;2022-07-29T04:52:06;101534.84;;;18.67;54.71
48527;BME280;34317;51.660;5.824;2022-07-29T04:54:33;101529.66;;;18.64;55.01
48527;BME280;34317;51.660;5.824;2022-07-29T04:57:00;101534.38;;;18.60;54.98
48527;BME280;34317;51.660;5.824;2022-07-29T04:59:27;101525.66;;;18.57;55.19
48527;BME280;34317;51.660;5.824;2022-07-29T05:01:54;101528.59;;;18.54;55.08
48527;BME280;34317;51.660;5.824;2022-07-29T05:04:22;101544.69;;;18.54;55.26
48527;BME280;34317;51.660;5.824;2022-07-29T05:06:49;101542.00;;;18.54;55.36
48527;BME280;34317;51.660;5.824;2022-07-29T05:09:16;101547.22;;;18.55;55.31
48527;BME280;34317;51.660;5.824;2022-07-29T05:11:44;101549.81;;;18.57;55.44
48527;BME280;34317;51.660;5.824;2022-07-29T05:14:11;101553.25;;;18.59;55.41
48527;BME280;34317;51.660;5.824;2022-07-29T05:16:38;101554.78;;;18.63;55.30
48527;BME280;34317;51.660;5.824;2022-07-29T05:19:06;101550.03;;;18.66;55.48
48527;BME280;34317;51.660;5.824;2022-07-29T05:21:40;101550.69;;;18.70;55.37
48527;BME280;34317;51.660;5.824;2022-07-29T05:24:07;101543.41;;;18.72;55.24
48527;BME280;34317;51.660;5.824;2022-07-29T05:26:34;101537.84;;;18.75;55.14
48527;BME280;34317;51.660;5.824;2022-07-29T05:29:01;101532.47;;;18.75;55.28
48527;BME280;34317;51.660;5.824;2022-07-29T05:31:28;101529.88;;;18.74;55.39
48527;BME280;34317;51.660;5.824;2022-07-29T05:33:56;101544.28;;;18.73;55.47
48527;BME280;34317;51.660;5.824;2022-07-29T05:36:23;101550.50;;;18.73;55.66
48527;BME280;34317;51.660;5.824;2022-07-29T05:38:50;101553.94;;;18.75;55.60
48527;BME280;34317;51.660;5.824;2022-07-29T05:41:19;101554.78;;;18.76;55.76
48527;BME280;34317;51.660;5.824;2022-07-29T05:43:46;101556.44;;;18.78;55.83
48527;BME280;34317;51.660;5.824;2022-07-29T05:46:13;101546.47;;;18.80;55.57
48527;BME280;34317;51.660;5.824;2022-07-29T05:48:43;101549.91;;;18.82;55.56
48527;BME280;34317;51.660;5.824;2022-07-29T05:51:10;101544.53;;;18.82;55.70
48527;BME280;34317;51.660;5.824;2022-07-29T05:53:37;101547.97;;;18.84;55.73
48527;BME280;34317;51.660;5.824;2022-07-29T05:56:04;101546.03;;;18.86;55.84
48527;BME280;34317;51.660;5.824;2022-07-29T05:58:32;101544.09;;;18.89;55.67
48527;BME280;34317;51.660;5.824;2022-07-29T06:00:59;101542.19;;;18.91;55.86
48527;BME280;34317;51.660;5.824;2022-07-29T06:03:27;101552.72;;;18.94;55.38
48527;BME280;34317;51.660;5.824;2022-07-29T06:05:55;101550.78;;;18.96;55.76
48527;BME280;34317;51.660;5.824;2022-07-29T06:08:22;101557.66;;;19.00;55.83
48527;BME280;34317;51.660;5.824;2022-07-29T06:10:49;101561.84;;;19.04;55.70
48527;BME280;34317;51.660;5.824;2022-07-29T06:13:16;101558.94;;;19.07;55.72
48527;BME280;34317;51.660;5.824;2022-07-29T06:15:43;101555.31;;;19.08;55.53
48527;BME280;34317;51.660;5.824;2022-07-29T06:18:12;101555.31;;;19.08;55.57
48527;BME280;34317;51.660;5.824;2022-07-29T06:20:40;101562.38;;;19.09;55.43
48527;BME280;34317;51.660;5.824;2022-07-29T06:23:07;101557.00;;;19.09;55.46
48527;BME280;34317;51.660;5.824;2022-07-29T06:25:34;101553.38;;;19.10;55.42
48527;BME280;34317;51.660;5.824;2022-07-29T06:28:03;101549.72;;;19.11;55.49
48527;BME280;34317;51.660;5.824;2022-07-29T06:30:30;101549.72;;;19.11;55.31
48527;BME280;34317;51.660;5.824;2022-07-29T06:32:57;101555.94;;;19.12;55.49
48527;BME280;34317;51.660;5.824;2022-07-29T06:35:25;101567.56;;;19.12;55.43
48527;BME280;34317;51.660;5.824;2022-07-29T06:38:07;101558.50;;;19.13;55.49
48527;BME280;34317;51.660;5.824;2022-07-29T06:40:54;101577.09;;;19.16;55.50
48527;BME280;34317;51.660;5.824;2022-07-29T06:43:38;101573.34;;;19.19;55.26
48527;BME280;34317;51.660;5.824;2022-07-29T06:46:21;101574.00;;;19.22;55.46
48527;BME280;34317;51.660;5.824;2022-07-29T06:48:50;101567.66;;;19.23;55.12
48527;BME280;34317;51.660;5.824;2022-07-29T06:51:18;101566.69;;;19.24;55.20
48527;BME280;34317;51.660;5.824;2022-07-29T06:53:50;101561.31;;;19.24;55.30
48527;BME280;34317;51.660;5.824;2022-07-29T06:56:30;101555.72;;;19.28;55.24
48527;BME280;34317;51.660;5.824;2022-07-29T06:59:05;101566.47;;;19.28;55.20
48527;BME280;34317;51.660;5.824;2022-07-29T07:01:32;101563.78;;;19.28;55.12
48527;BME280;34317;51.660;5.824;2022-07-29T07:03:59;101558.41;;;19.28;55.37
48527;BME280;34317;51.660;5.824;2022-07-29T07:06:26;101558.41;;;19.28;55.24
48527;BME280;34317;51.660;5.824;2022-07-29T07:08:54;101555.72;;;19.28;55.17
48527;BME280;34317;51.660;5.824;2022-07-29T07:11:21;101552.19;;;19.27;55.28
48527;BME280;34317;51.660;5.824;2022-07-29T07:13:48;101564.53;;;19.30;55.54
48527;BME280;34317;51.660;5.824;2022-07-29T07:16:15;101569.72;;;19.33;55.54
48527;BME280;34317;51.660;5.824;2022-07-29T07:18:43;101574.84;;;19.36;55.44
48527;BME280;34317;51.660;5.824;2022-07-29T07:21:12;101562.16;;;19.38;55.45
48527;BME280;34317;51.660;5.824;2022-07-29T07:23:46;101557.66;;;19.38;55.23
48527;BME280;34317;51.660;5.824;2022-07-29T07:26:13;101563.88;;;19.39;55.32
48527;BME280;34317;51.660;5.824;2022-07-29T07:28:40;101578.06;;;19.41;55.40
48527;BME280;34317;51.660;5.824;2022-07-29T07:31:07;101585.16;;;19.42;55.19
48527;BME280;34317;51.660;5.824;2022-07-29T07:33:34;101588.47;;;19.45;55.31
48527;BME280;34317;51.660;5.824;2022-07-29T07:36:02;101583.75;;;19.49;55.42
48527;BME280;34317;51.660;5.824;2022-07-29T07:38:29;101575.47;;;19.52;55.35
48527;BME280;34317;51.660;5.824;2022-07-29T07:40:56;101583.34;;;19.55;55.33
48527;BME280;34317;51.660;5.824;2022-07-29T07:43:23;101579.56;;;19.58;55.26
48527;BME280;34317;51.660;5.824;2022-07-29T07:45:50;101587.28;;;19.62;55.00
48527;BME280;34317;51.660;5.824;2022-07-29T07:48:17;101598.66;;;19.66;54.99
48527;BME280;34317;51.660;5.824;2022-07-29T07:50:44;101606.41;;;19.71;55.06
48527;BME280;34317;51.660;5.824;2022-07-29T07:53:11;101611.38;;;19.77;55.39
48527;BME280;34317;51.660;5.824;2022-07-29T07:55:42;101603.63;;;19.85;55.32
48527;BME280;34317;51.660;5.824;2022-07-29T07:58:29;101593.28;;;19.92;54.69
48527;BME280;34317;51.660;5.824;2022-07-29T08:00:56;101584.03;;;19.96;54.50
48527;BME280;34317;51.660;5.824;2022-07-29T08:03:24;101576.69;;;19.98;54.68
48527;BME280;34317;51.660;5.824;2022-07-29T08:05:51;101586.16;;;20.03;54.67
48527;BME280;34317;51.660;5.824;2022-07-29T08:08:18;101584.00;;;20.09;54.64
48527;BME280;34317;51.660;5.824;2022-07-29T08:10:46;101585.25;;;20.16;54.78
48527;BME280;34317;51.660;5.824;2022-07-29T08:13:24;101592.13;;;20.20;54.38
48527;BME280;34317;51.660;5.824;2022-07-29T08:15:54;101583.06;;;20.21;53.86
48527;BME280;34317;51.660;5.824;2022-07-29T08:18:39;101589.72;;;20.28;54.12
48527;BME280;34317;51.660;5.824;2022-07-29T08:21:07;101587.56;;;20.33;53.96
48527;BME280;34317;51.660;5.824;2022-07-29T08:23:34;101596.16;;;20.38;54.13
48527;BME280;34317;51.660;5.824;2022-07-29T08:26:15;101600.84;;;20.48;54.21
48527;BME280;34317;51.660;5.824;2022-07-29T08:28:44;101594.00;;;20.55;54.03
48527;BME280;34317;51.660;5.824;2022-07-29T08:31:13;101596.91;;;20.65;53.97
48527;BME280;34317;51.660;5.824;2022-07-29T08:33:41;101606.09;;;20.73;53.86
48527;BME280;34317;51.660;5.824;2022-07-29T08:36:08;101610.56;;;20.86;53.97
48527;BME280;34317;51.660;5.824;2022-07-29T08:38:35;101609.16;;;21.04;54.32
48527;BME280;34317;51.660;5.824;2022-07-29T08:41:02;101599.63;;;21.23;54.31
48527;BME280;34317;51.660;5.824;2022-07-29T08:43:29;101600.88;;;21.41;53.67
48527;BME280;34317;51.660;5.824;2022-07-29T08:45:57;101608.50;;;21.58;53.38
48527;BME280;34317;51.660;5.824;2022-07-29T08:48:24;101611.47;;;21.78;53.15
48527;BME280;34317;51.660;5.824;2022-07-29T08:50:56;101612.69;;;21.96;52.49
48527;BME280;34317;51.660;5.824;2022-07-29T08:53:26;101615.84;;;22.13;51.88
48527;BME280;34317;51.660;5.824;2022-07-29T08:55:54;101615.59;;;22.27;52.05
48527;BME280;34317;51.660;5.824;2022-07-29T08:58:22;101610.66;;;22.44;51.69
48527;BME280;34317;51.660;5.824;2022-07-29T09:00:53;101614.53;;;22.62;51.36
48527;BME280;34317;51.660;5.824;2022-07-29T09:03:26;101613.22;;;22.78;50.94
48527;BME280;34317;51.660;5.824;2022-07-29T09:05:57;101610.72;;;22.86;50.38
48527;BME280;34317;51.660;5.824;2022-07-29T09:08:25;101609.94;;;22.95;50.61
48527;BME280;34317;51.660;5.824;2022-07-29T09:10:53;101608.91;;;23.07;50.76
48527;BME280;34317;51.660;5.824;2022-07-29T09:13:20;101607.84;;;23.20;50.55
48527;BME280;34317;51.660;5.824;2022-07-29T09:15:47;101607.66;;;23.32;49.75
48527;BME280;34317;51.660;5.824;2022-07-29T09:21:02;101604.88;;;23.44;49.53
48527;BME280;34317;51.660;5.824;2022-07-29T09:24:14;101603.47;;;23.49;49.34
48527;BME280;34317;51.660;5.824;2022-07-29T09:26:44;101606.34;;;23.58;49.45
48527;BME280;34317;51.660;5.824;2022-07-29T09:29:17;101604.56;;;23.68;49.60
48527;BME280;34317;51.660;5.824;2022-07-29T09:31:47;101602.50;;;23.81;49.45
48527;BME280;34317;51.660;5.824;2022-07-29T09:34:17;101600.41;;;23.95;49.24
48527;BME280;34317;51.660;5.824;2022-07-29T09:36:49;101603.97;;;24.05;48.79
48527;BME280;34317;51.660;5.824;2022-07-29T09:39:32;101606.56;;;24.16;48.62
48527;BME280;34317;51.660;5.824;2022-07-29T09:42:02;101605.47;;;24.28;48.44
48527;BME280;34317;51.660;5.824;2022-07-29T09:44:47;101610.88;;;24.38;48.04
48527;BME280;34317;51.660;5.824;2022-07-29T09:47:16;101612.75;;;24.47;47.91
48527;BME280;34317;51.660;5.824;2022-07-29T09:49:57;101607.22;;;24.59;47.98
48527;BME280;34317;51.660;5.824;2022-07-29T09:52:48;101606.94;;;24.72;47.41
48527;BME280;34317;51.660;5.824;2022-07-29T09:55:16;101607.22;;;24.78;47.50
48527;BME280;34317;51.660;5.824;2022-07-29T09:57:46;101610.63;;;24.90;46.93
48527;BME280;34317;51.660;5.824;2022-07-29T10:00:16;101614.91;;;25.02;46.93
48527;BME280;34317;51.660;5.824;2022-07-29T10:02:46;101611.03;;;25.15;47.18
48527;BME280;34317;51.660;5.824;2022-07-29T10:05:31;101610.59;;;25.29;46.59
48527;BME280;34317;51.660;5.824;2022-07-29T10:08:02;101604.28;;;25.38;45.89
48527;BME280;34317;51.660;5.824;2022-07-29T10:10:32;101605.41;;;25.45;45.36
48527;BME280;34317;51.660;5.824;2022-07-29T10:13:02;101606.69;;;25.51;45.07
48527;BME280;34317;51.660;5.824;2022-07-29T10:15:39;101606.22;;;25.56;45.29
48527;BME280;34317;51.660;5.824;2022-07-29T10:18:08;101605.31;;;25.65;45.19
48527;BME280;34317;51.660;5.824;2022-07-29T10:20:37;101604.16;;;25.77;44.82
48527;BME280;34317;51.660;5.824;2022-07-29T10:23:05;101604.94;;;25.88;44.56
48527;BME280;34317;51.660;5.824;2022-07-29T10:25:32;101602.38;;;25.96;44.50
48527;BME280;34317;51.660;5.824;2022-07-29T10:27:59;101602.47;;;26.04;45.17
48527;BME280;34317;51.660;5.824;2022-07-29T10:30:27;101595.97;;;26.15;44.92
48527;BME280;34317;51.660;5.824;2022-07-29T10:33:32;101586.72;;;26.26;44.99
48527;BME280;34317;51.660;5.824;2022-07-29T10:36:18;101587.19;;;26.39;44.45
48527;BME280;34317;51.660;5.824;2022-07-29T10:39:17;101592.09;;;26.53;44.34
48527;BME280;34317;51.660;5.824;2022-07-29T10:44:32;101581.81;;;26.75;43.85
48527;BME280;34317;51.660;5.824;2022-07-29T10:47:00;101582.84;;;26.82;43.60
48527;BME280;34317;51.660;5.824;2022-07-29T10:49:28;101589.06;;;26.92;43.20
48527;BME280;34317;51.660;5.824;2022-07-29T10:52:04;101590.16;;;26.99;42.93
48527;BME280;34317;51.660;5.824;2022-07-29T10:57:21;101579.38;;;27.16;43.20
48527;BME280;34317;51.660;5.824;2022-07-29T11:00:25;101585.59;;;27.26;42.32
48527;BME280;34317;51.660;5.824;2022-07-29T11:02:53;101583.56;;;27.28;41.60
48527;BME280;34317;51.660;5.824;2022-07-29T11:05:22;101595.81;;;27.32;41.41
48527;BME280;34317;51.660;5.824;2022-07-29T11:10:48;101586.00;;;27.40;41.17
48527;BME280;34317;51.660;5.824;2022-07-29T11:13:51;101580.25;;;27.43;41.58
48527;BME280;34317;51.660;5.824;2022-07-29T11:16:20;101592.88;;;27.52;40.64
48527;BME280;34317;51.660;5.824;2022-07-29T11:21:44;101595.09;;;27.48;40.14
48527;BME280;34317;51.660;5.824;2022-07-29T11:24:30;101583.00;;;27.51;40.36
48527;BME280;34317;51.660;5.824;2022-07-29T11:27:18;101591.56;;;27.56;40.68
48527;BME280;34317;51.660;5.824;2022-07-29T11:29:56;101587.13;;;27.63;41.22
48527;BME280;34317;51.660;5.824;2022-07-29T11:32:25;101584.84;;;27.76;40.69
48527;BME280;34317;51.660;5.824;2022-07-29T11:35:13;101589.66;;;27.91;40.65
48527;BME280;34317;51.660;5.824;2022-07-29T11:37:45;101582.91;;;28.03;40.38
48527;BME280;34317;51.660;5.824;2022-07-29T11:40:23;101585.31;;;28.14;40.25
48527;BME280;34317;51.660;5.824;2022-07-29T11:42:51;101580.88;;;28.22;40.02
48527;BME280;34317;51.660;5.824;2022-07-29T11:45:20;101579.38;;;28.27;39.75
48527;BME280;34317;51.660;5.824;2022-07-29T11:48:15;101578.19;;;28.30;39.22
48527;BME280;34317;51.660;5.824;2022-07-29T11:50:58;101576.84;;;28.34;39.33
48527;BME280;34317;51.660;5.824;2022-07-29T11:53:26;101584.31;;;28.40;39.49
48527;BME280;34317;51.660;5.824;2022-07-29T11:55:59;101581.97;;;28.45;38.39
48527;BME280;34317;51.660;5.824;2022-07-29T11:58:27;101576.88;;;28.50;38.54
48527;BME280;34317;51.660;5.824;2022-07-29T12:00:55;101577.22;;;28.56;38.96
48527;BME280;34317;51.660;5.824;2022-07-29T12:03:28;101577.75;;;28.67;38.60
48527;BME280;34317;51.660;5.824;2022-07-29T12:06:10;101583.72;;;28.79;37.61
48527;BME280;34317;51.660;5.824;2022-07-29T12:08:40;101572.81;;;28.79;37.70
48527;BME280;34317;51.660;5.824;2022-07-29T12:11:19;101581.66;;;28.81;37.73
48527;BME280;34317;51.660;5.824;2022-07-29T12:13:52;101577.22;;;28.88;37.27
48527;BME280;34317;51.660;5.824;2022-07-29T12:16:20;101580.63;;;28.90;37.02
48527;BME280;34317;51.660;5.824;2022-07-29T12:18:57;101578.91;;;28.89;37.16
48527;BME280;34317;51.660;5.824;2022-07-29T12:21:25;101575.50;;;28.87;36.64
48527;BME280;34317;51.660;5.824;2022-07-29T12:23:56;101570.06;;;28.87;37.82
48527;BME280;34317;51.660;5.824;2022-07-29T12:26:30;101571.06;;;28.95;37.26
48527;BME280;34317;51.660;5.824;2022-07-29T12:29:00;101575.84;;;29.01;37.64
48527;BME280;34317;51.660;5.824;2022-07-29T12:31:28;101578.56;;;29.09;36.96
48527;BME280;34317;51.660;5.824;2022-07-29T12:34:12;101564.59;;;29.20;37.46
48527;BME280;34317;51.660;5.824;2022-07-29T12:36:43;101567.66;;;29.25;36.73
48527;BME280;34317;51.660;5.824;2022-07-29T12:39:11;101572.41;;;29.31;36.49
48527;BME280;34317;51.660;5.824;2022-07-29T12:41:39;101574.59;;;29.36;36.24
48527;BME280;34317;51.660;5.824;2022-07-29T12:44:06;101575.94;;;29.40;36.73
48527;BME280;34317;51.660;5.824;2022-07-29T12:46:33;101574.06;;;29.49;37.00
48527;BME280;34317;51.660;5.824;2022-07-29T12:49:00;101576.41;;;29.60;36.53
48527;BME280;34317;51.660;5.824;2022-07-29T12:51:35;101574.31;;;29.70;35.96
48527;BME280;34317;51.660;5.824;2022-07-29T12:54:15;101563.72;;;29.76;36.46
48527;BME280;34317;51.660;5.824;2022-07-29T12:56:43;101570.19;;;29.83;36.55
48527;BME280;34317;51.660;5.824;2022-07-29T12:59:16;101571.19;;;29.90;36.12
48527;BME280;34317;51.660;5.824;2022-07-29T13:01:45;101571.50;;;29.95;36.02
48527;BME280;34317;51.660;5.824;2022-07-29T13:04:30;101553.72;;;29.99;36.52
48527;BME280;34317;51.660;5.824;2022-07-29T13:06:59;101558.78;;;30.11;36.23
48527;BME280;34317;51.660;5.824;2022-07-29T13:09:37;101567.94;;;30.18;35.99
48527;BME280;34317;51.660;5.824;2022-07-29T13:12:09;101561.09;;;30.22;36.08
48527;BME280;34317;51.660;5.824;2022-07-29T13:14:45;101560.69;;;30.25;35.50
48527;BME280;34317;51.660;5.824;2022-07-29T13:17:15;101556.59;;;30.29;35.49
48527;BME280;34317;51.660;5.824;2022-07-29T13:19:43;101559.97;;;30.39;35.54
48527;BME280;34317;51.660;5.824;2022-07-29T13:22:13;101561.25;;;30.52;35.24
48527;BME280;34317;51.660;5.824;2022-07-29T13:24:55;101560.81;;;30.63;35.18
48527;BME280;34317;51.660;5.824;2022-07-29T13:27:25;101566.50;;;30.76;34.53
48527;BME280;34317;51.660;5.824;2022-07-29T13:29:53;101567.91;;;30.87;34.71
48527;BME280;34317;51.660;5.824;2022-07-29T13:32:24;101562.94;;;30.91;34.08
48527;BME280;34317;51.660;5.824;2022-07-29T13:34:59;101560.69;;;30.94;34.67
48527;BME280;34317;51.660;5.824;2022-07-29T13:37:32;101563.56;;;31.01;33.86
48527;BME280;34317;51.660;5.824;2022-07-29T13:40:02;101556.00;;;31.03;34.19
48527;BME280;34317;51.660;5.824;2022-07-29T13:42:31;101555.25;;;31.09;33.53